Time;durP1;ratioP1;P1;durP2;ratioP2;P2;SDS_P1;SDS_P2;PMS_P1;PMS_P2;Temp;Humidity;BMP_temperature;BMP_pressure;BME280_temperature;BME280_humidity;BME280_pressure;Samples;Min_cycle;Max_cycle;Signal;HPM_P1;HPM_P2
2023/03/23 00:01:22;;;;;;;1.35;0.82;;;12.90;66.80;;;;;;5026878;28;20037;-77
2023/03/23 00:03:49;;;;;;;0.82;0.73;;;12.90;66.70;;;;;;5013488;28;20044;-77
2023/03/23 00:06:17;;;;;;;1.58;1.13;;;12.90;66.60;;;;;;5025026;28;20349;-76
2023/03/23 00:08:46;;;;;;;1.50;0.90;;;12.90;66.60;;;;;;5031311;28;20699;-77
2023/03/23 00:11:14;;;;;;;0.85;0.77;;;13.00;66.50;;;;;;5030747;28;20052;-77
2023/03/23 00:13:40;;;;;;;2.30;0.70;;;13.00;66.40;;;;;;5028438;28;20051;-77
2023/03/23 00:16:17;;;;;;;1.65;0.73;;;13.00;66.30;;;;;;5026730;28;20037;-77
2023/03/23 00:18:46;;;;;;;1.30;0.70;;;13.10;66.30;;;;;;5025696;28;20086;-76
2023/03/23 00:21:12;;;;;;;0.82;0.70;;;13.10;66.30;;;;;;5001222;28;20059;-77
2023/03/23 00:23:39;;;;;;;0.63;0.60;;;13.10;66.20;;;;;;5017856;28;20048;-76
2023/03/23 00:26:04;;;;;;;0.82;0.70;;;13.10;66.20;;;;;;5019572;28;20044;-77
2023/03/23 00:28:30;;;;;;;1.80;0.75;;;13.20;66.30;;;;;;5042907;28;20682;-76
2023/03/23 00:31:00;;;;;;;1.23;0.95;;;13.20;66.20;;;;;;5032684;28;20036;-77
2023/03/23 00:33:30;;;;;;;2.08;0.60;;;13.20;66.20;;;;;;5034357;28;20689;-76
2023/03/23 00:35:55;;;;;;;1.85;0.75;;;13.20;66.10;;;;;;4992083;28;20037;-78
2023/03/23 00:38:22;;;;;;;2.60;1.20;;;13.30;66.10;;;;;;5011484;28;20052;-76
2023/03/23 00:40:47;;;;;;;1.27;0.70;;;13.30;66.10;;;;;;5007091;28;20056;-77
2023/03/23 00:43:16;;;;;;;1.23;0.60;;;13.30;66.10;;;;;;5007050;28;20033;-77
2023/03/23 00:45:41;;;;;;;4.05;0.90;;;13.30;66.00;;;;;;4987371;28;20136;-77
2023/03/23 00:48:07;;;;;;;1.77;0.90;;;13.30;66.00;;;;;;5012718;28;20779;-77
2023/03/23 00:50:32;;;;;;;2.65;0.90;;;13.30;66.00;;;;;;5028251;28;20033;-76
2023/03/23 00:52:58;;;;;;;1.40;0.90;;;13.40;66.00;;;;;;5031117;28;20040;-77
2023/03/23 00:55:25;;;;;;;1.75;1.00;;;13.40;66.00;;;;;;5025198;28;20123;-77
2023/03/23 00:57:51;;;;;;;1.15;0.80;;;13.40;66.10;;;;;;4976118;28;20037;-77
2023/03/23 01:00:18;;;;;;;1.98;0.80;;;13.40;66.00;;;;;;5017065;28;20034;-77
2023/03/23 01:02:44;;;;;;;1.38;1.20;;;13.40;66.00;;;;;;5016240;28;20041;-77
2023/03/23 01:05:10;;;;;;;2.60;0.80;;;13.40;66.00;;;;;;5002541;28;20373;-76
2023/03/23 01:07:36;;;;;;;1.35;0.73;;;13.40;66.00;;;;;;5023600;28;20037;-77
2023/03/23 01:10:02;;;;;;;1.48;0.90;;;13.40;66.00;;;;;;5012741;28;20063;-77
2023/03/23 01:12:28;;;;;;;1.35;0.75;;;13.40;66.00;;;;;;5002358;28;20684;-78
2023/03/23 01:14:53;;;;;;;1.23;0.85;;;13.40;65.90;;;;;;5001363;28;20125;-76
2023/03/23 01:17:20;;;;;;;1.48;0.90;;;13.50;65.90;;;;;;5034130;28;20037;-76
2023/03/23 01:19:46;;;;;;;2.05;0.77;;;13.50;65.90;;;;;;5009049;28;20037;-76
2023/03/23 01:22:11;;;;;;;1.90;0.77;;;13.50;65.90;;;;;;5009163;28;20377;-77
2023/03/23 01:24:37;;;;;;;1.60;0.73;;;13.50;65.80;;;;;;5021418;28;20065;-77
2023/03/23 01:27:06;;;;;;;2.03;0.93;;;13.50;65.80;;;;;;5004028;28;20104;-77
2023/03/23 01:29:33;;;;;;;1.13;0.80;;;13.40;65.70;;;;;;5003083;28;20078;-76
2023/03/23 01:31:58;;;;;;;4.25;1.40;;;13.40;65.70;;;;;;4972850;28;20399;-76
2023/03/23 01:34:24;;;;;;;2.70;1.00;;;13.40;65.70;;;;;;5023081;28;20043;-76
2023/03/23 01:36:49;;;;;;;2.28;0.80;;;13.40;65.70;;;;;;5021710;28;20056;-77
2023/03/23 01:39:15;;;;;;;0.93;0.70;;;13.40;65.80;;;;;;5035535;28;20062;-78
2023/03/23 01:41:41;;;;;;;1.55;1.20;;;13.40;65.80;;;;;;4994704;28;20612;-77
2023/03/23 01:44:27;;;;;;;0.85;0.85;;;13.40;65.80;;;;;;5024433;28;20071;-77
2023/03/23 01:46:54;;;;;;;1.50;0.80;;;13.40;65.80;;;;;;5045550;28;20044;-76
2023/03/23 01:49:23;;;;;;;0.80;0.70;;;13.40;65.80;;;;;;5023641;28;20786;-76
2023/03/23 01:52:09;;;;;;;1.95;0.90;;;13.40;65.80;;;;;;5014728;28;20101;-75
2023/03/23 01:54:36;;;;;;;1.23;0.80;;;13.30;65.80;;;;;;5019161;28;20049;-76
2023/03/23 01:57:07;;;;;;;0.88;0.80;;;13.30;65.90;;;;;;5026422;28;20033;-77
2023/03/23 01:59:33;;;;;;;2.63;0.80;;;13.30;65.90;;;;;;5032550;28;20040;-77
2023/03/23 02:02:00;;;;;;;1.30;0.77;;;13.30;65.90;;;;;;5012287;28;20064;-76
2023/03/23 02:04:26;;;;;;;1.67;0.85;;;13.30;65.90;;;;;;5013269;28;20039;-77
2023/03/23 02:06:51;;;;;;;1.77;1.02;;;13.20;65.80;;;;;;5009804;28;20029;-77
2023/03/23 02:09:17;;;;;;;1.27;0.80;;;13.20;65.90;;;;;;4995263;28;20702;-77
2023/03/23 02:11:44;;;;;;;1.70;0.80;;;13.20;65.90;;;;;;4992891;28;20604;-77
2023/03/23 02:14:09;;;;;;;1.55;0.70;;;13.20;66.00;;;;;;4981126;28;20037;-76
2023/03/23 02:17:02;;;;;;;1.42;0.63;;;13.20;65.90;;;;;;4996103;28;20506;-76
2023/03/23 02:19:46;;;;;;;2.05;0.70;;;13.20;65.90;;;;;;5023515;28;20052;-77
2023/03/23 02:22:33;;;;;;;2.25;0.80;;;13.20;65.90;;;;;;5040693;28;20033;-76
2023/03/23 02:25:03;;;;;;;2.90;0.80;;;13.20;65.90;;;;;;5031977;28;20039;-77
2023/03/23 02:27:50;;;;;;;1.48;0.75;;;13.20;65.90;;;;;;4994083;28;20033;-76
2023/03/23 02:30:37;;;;;;;1.50;0.70;;;13.20;65.90;;;;;;5028035;28;20065;-77
2023/03/23 02:33:30;;;;;;;0.90;0.70;;;13.20;65.90;;;;;;5026562;28;20029;-76
2023/03/23 02:36:05;;;;;;;1.83;0.80;;;13.10;65.90;;;;;;5008950;28;20149;-77
2023/03/23 02:38:38;;;;;;;1.55;0.70;;;13.10;66.00;;;;;;4994766;28;20259;-78
2023/03/23 02:41:03;;;;;;;1.75;0.88;;;13.10;66.00;;;;;;5019035;28;20049;-77
2023/03/23 02:43:36;;;;;;;1.10;0.60;;;13.10;66.00;;;;;;4993493;28;20037;-77
2023/03/23 02:46:06;;;;;;;1.50;0.75;;;13.10;66.00;;;;;;5007151;28;20057;-77
2023/03/23 02:48:31;;;;;;;1.02;0.70;;;13.10;66.00;;;;;;5015480;28;20025;-77
2023/03/23 02:50:57;;;;;;;1.35;0.63;;;13.10;65.90;;;;;;4993546;28;20093;-78
2023/03/23 02:53:23;;;;;;;1.00;0.60;;;13.10;65.90;;;;;;5009217;28;20642;-77
2023/03/23 02:55:49;;;;;;;2.30;0.70;;;13.10;65.90;;;;;;5004182;28;20038;-77
2023/03/23 02:58:14;;;;;;;1.45;0.63;;;13.10;65.90;;;;;;5009202;28;20095;-78
2023/03/23 03:00:40;;;;;;;0.63;0.60;;;13.10;65.80;;;;;;4974519;28;20049;-77
2023/03/23 03:03:07;;;;;;;1.33;0.70;;;13.10;65.80;;;;;;4987459;28;20103;-78
2023/03/23 03:05:40;;;;;;;1.83;0.63;;;13.10;65.80;;;;;;5013332;28;20037;-77
2023/03/23 03:08:39;;;;;;;0.65;0.55;;;13.10;65.90;;;;;;5017241;28;20044;-77
2023/03/23 03:11:15;;;;;;;0.93;0.68;;;13.10;65.80;;;;;;5006742;28;20042;-76
2023/03/23 03:13:53;;;;;;;1.17;0.40;;;13.00;65.90;;;;;;4978335;28;20435;-77
2023/03/23 03:17:00;;;;;;;1.10;0.70;;;13.00;66.20;;;;;;5025172;28;20041;-77
2023/03/23 03:19:30;;;;;;;0.70;0.55;;;13.10;65.90;;;;;;5021703;28;20041;-77
2023/03/23 03:21:57;;;;;;;1.52;0.65;;;13.00;65.90;;;;;;4975626;28;20061;-76
2023/03/23 03:24:23;;;;;;;0.43;0.40;;;13.00;65.90;;;;;;4981615;28;20033;-77
2023/03/23 03:26:50;;;;;;;1.13;0.50;;;13.00;65.90;;;;;;5015338;28;20073;-76
2023/03/23 03:29:22;;;;;;;1.45;0.63;;;13.00;65.90;;;;;;4994621;28;20044;-76
2023/03/23 03:31:49;;;;;;;1.58;0.60;;;13.00;66.00;;;;;;5012448;28;20382;-77
2023/03/23 03:34:17;;;;;;;0.70;0.55;;;13.00;66.00;;;;;;4994598;28;20045;-77
2023/03/23 03:36:46;;;;;;;1.23;0.70;;;13.00;66.00;;;;;;4984581;28;20083;-78
2023/03/23 03:39:12;;;;;;;1.48;0.80;;;13.00;66.00;;;;;;4996764;28;20499;-78
2023/03/23 03:41:38;;;;;;;0.95;0.60;;;13.00;66.00;;;;;;4994781;28;20046;-77
2023/03/23 03:44:05;;;;;;;0.80;0.55;;;13.00;66.00;;;;;;4991592;28;20046;-78
2023/03/23 03:46:30;;;;;;;1.05;0.60;;;13.00;66.00;;;;;;4992975;28;20041;-78
2023/03/23 03:48:57;;;;;;;1.25;0.82;;;13.00;66.00;;;;;;4996360;28;20130;-76
2023/03/23 03:51:23;;;;;;;1.13;0.60;;;13.00;66.10;;;;;;5023737;28;20041;-77
2023/03/23 03:53:49;;;;;;;1.95;0.60;;;13.00;66.00;;;;;;4992523;28;20542;-77
2023/03/23 03:56:15;;;;;;;1.58;0.80;;;13.00;66.00;;;;;;5024632;28;20041;-78
2023/03/23 03:58:42;;;;;;;2.45;0.50;;;13.00;66.10;;;;;;5014225;28;20052;-77
2023/03/23 04:01:09;;;;;;;0.93;0.60;;;13.00;66.20;;;;;;5006444;28;20496;-77
2023/03/23 04:03:35;;;;;;;1.27;0.60;;;13.00;66.10;;;;;;4992384;28;20048;-77
2023/03/23 04:06:01;;;;;;;0.65;0.50;;;13.00;66.20;;;;;;5012545;28;20042;-78
2023/03/23 04:08:26;;;;;;;1.58;0.43;;;13.00;66.20;;;;;;5015897;28;20530;-78
2023/03/23 04:10:53;;;;;;;1.15;0.73;;;13.00;66.20;;;;;;5009178;28;20041;-77
2023/03/23 04:13:19;;;;;;;1.88;0.60;;;12.90;66.10;;;;;;5004302;28;20041;-78
2023/03/23 04:15:45;;;;;;;0.98;0.60;;;12.90;66.10;;;;;;5009101;28;20030;-77
2023/03/23 04:18:11;;;;;;;3.83;0.70;;;12.90;66.30;;;;;;4992089;28;20038;-78
2023/03/23 04:20:37;;;;;;;0.80;0.60;;;12.90;66.30;;;;;;5021996;28;20508;-77
2023/03/23 04:23:02;;;;;;;1.48;0.70;;;12.90;66.30;;;;;;5005334;28;20040;-78
2023/03/23 04:25:28;;;;;;;1.17;0.70;;;12.90;66.40;;;;;;5007172;28;20665;-75
2023/03/23 04:27:54;;;;;;;1.40;0.70;;;12.90;66.40;;;;;;5008486;28;20136;-77
2023/03/23 04:30:21;;;;;;;1.33;0.80;;;12.90;66.50;;;;;;5006053;28;20767;-78
2023/03/23 04:32:50;;;;;;;1.05;0.73;;;12.90;66.50;;;;;;5006492;28;20607;-78
2023/03/23 04:35:16;;;;;;;0.93;0.60;;;12.90;66.60;;;;;;5005065;28;20074;-76
2023/03/23 04:37:42;;;;;;;1.50;0.73;;;12.90;66.60;;;;;;4993480;28;20061;-78
2023/03/23 04:40:14;;;;;;;1.20;0.68;;;12.90;66.70;;;;;;5006933;28;20030;-79
2023/03/23 04:42:45;;;;;;;1.00;0.70;;;12.90;66.80;;;;;;5003086;28;20037;-78
2023/03/23 04:45:12;;;;;;;;;;;12.80;66.70;;;;;;5008237;28;20036;-78
2023/03/23 04:47:40;;;;;;;0.88;0.70;;;12.80;66.60;;;;;;5015388;28;19928;-79
2023/03/23 04:50:08;;;;;;;1.27;0.63;;;12.80;66.60;;;;;;5005963;28;20033;-78
2023/03/23 04:52:34;;;;;;;2.17;0.98;;;12.80;66.70;;;;;;5008589;28;20032;-78
2023/03/23 04:54:59;;;;;;;3.22;0.75;;;12.80;66.80;;;;;;5021192;28;20032;-78
2023/03/23 04:57:28;;;;;;;1.08;0.60;;;12.80;66.90;;;;;;5047806;28;20034;-78
2023/03/23 04:59:54;;;;;;;0.68;0.60;;;12.80;67.20;;;;;;5028047;28;20516;-78
2023/03/23 05:02:19;;;;;;;0.90;0.80;;;12.80;67.30;;;;;;5032937;28;20591;-79
2023/03/23 05:04:45;;;;;;;2.08;0.70;;;12.80;67.50;;;;;;5028158;28;20040;-78
2023/03/23 05:07:11;;;;;;;0.70;0.50;;;12.70;67.50;;;;;;5030437;28;20044;-79
2023/03/23 05:09:36;;;;;;;1.67;0.80;;;12.70;67.70;;;;;;5013449;28;20531;-78
2023/03/23 05:12:08;;;;;;;1.10;0.60;;;12.70;67.90;;;;;;5030098;28;20032;-78
2023/03/23 05:14:34;;;;;;;0.82;0.70;;;12.70;68.30;;;;;;5022338;28;20037;-79
2023/03/23 05:17:00;;;;;;;2.17;0.60;;;12.70;68.20;;;;;;5015589;28;20068;-79
2023/03/23 05:19:26;;;;;;;1.80;0.80;;;12.70;68.30;;;;;;5018401;28;20049;-78
2023/03/23 05:21:51;;;;;;;1.40;0.90;;;12.60;68.40;;;;;;5010298;28;20041;-79
2023/03/23 05:24:17;;;;;;;0.77;0.57;;;12.60;68.50;;;;;;5027020;28;20297;-77
2023/03/23 05:26:44;;;;;;;4.60;0.80;;;12.60;68.70;;;;;;5033995;28;20613;-77
2023/03/23 05:29:10;;;;;;;1.75;0.70;;;12.60;69.10;;;;;;5026051;28;20064;-79
2023/03/23 05:31:36;;;;;;;2.10;0.85;;;12.60;70.00;;;;;;5026597;28;20069;-77
2023/03/23 05:34:03;;;;;;;1.77;0.70;;;12.50;69.50;;;;;;5025358;28;20045;-79
2023/03/23 05:36:29;;;;;;;0.88;0.70;;;12.50;69.80;;;;;;5025198;28;20037;-77
2023/03/23 05:38:54;;;;;;;1.27;0.90;;;12.50;70.40;;;;;;5000561;28;20048;-76
2023/03/23 05:41:20;;;;;;;1.00;0.57;;;12.50;70.50;;;;;;5027344;28;20123;-77
2023/03/23 05:43:46;;;;;;;2.95;0.65;;;12.50;70.60;;;;;;5022492;28;20045;-77
2023/03/23 05:46:11;;;;;;;2.20;0.70;;;12.40;71.10;;;;;;5025426;28;20037;-77
2023/03/23 05:48:38;;;;;;;1.05;0.77;;;12.40;71.10;;;;;;4990705;28;20048;-78
2023/03/23 05:51:03;;;;;;;1.45;0.82;;;12.40;71.30;;;;;;5006461;28;20088;-77
2023/03/23 05:53:30;;;;;;;1.42;0.73;;;12.40;72.20;;;;;;5010169;28;20041;-78
2023/03/23 05:56:00;;;;;;;2.22;0.68;;;12.30;71.90;;;;;;4992863;28;20568;-78
2023/03/23 05:58:26;;;;;;;0.88;0.68;;;12.30;72.30;;;;;;4994162;28;20676;-78
2023/03/23 06:00:51;;;;;;;3.08;0.80;;;12.30;72.30;;;;;;5026173;28;20038;-77
2023/03/23 06:03:17;;;;;;;1.15;0.70;;;12.30;72.60;;;;;;5004337;28;20670;-77
2023/03/23 06:05:45;;;;;;;1.30;0.77;;;12.30;72.80;;;;;;5005656;28;20029;-77
2023/03/23 06:08:11;;;;;;;0.77;0.70;;;12.20;73.10;;;;;;4990269;28;20037;-77
2023/03/23 06:10:37;;;;;;;1.05;0.80;;;12.20;73.10;;;;;;5008200;28;20038;-77
2023/03/23 06:13:03;;;;;;;0.98;0.70;;;12.20;73.30;;;;;;5003853;28;20394;-76
2023/03/23 06:15:31;;;;;;;0.57;0.57;;;12.20;73.50;;;;;;5009226;28;20057;-77
2023/03/23 06:17:58;;;;;;;0.60;0.60;;;12.20;73.70;;;;;;4989635;28;20034;-77
2023/03/23 06:20:24;;;;;;;1.02;0.70;;;12.20;74.70;;;;;;5016374;28;20040;-76
2023/03/23 06:22:51;;;;;;;0.98;0.77;;;12.20;74.00;;;;;;4995792;28;20041;-77
2023/03/23 06:25:17;;;;;;;0.88;0.63;;;12.10;74.00;;;;;;5007750;28;20038;-75
2023/03/23 06:27:43;;;;;;;0.93;0.73;;;12.10;74.20;;;;;;4979599;28;20045;-77
2023/03/23 06:30:10;;;;;;;0.80;0.68;;;12.10;74.30;;;;;;5017278;28;20116;-76
2023/03/23 06:32:36;;;;;;;0.52;0.45;;;12.10;74.40;;;;;;4993979;28;20046;-77
2023/03/23 06:35:03;;;;;;;2.15;0.80;;;12.20;74.50;;;;;;5008826;28;20036;-77
2023/03/23 06:37:29;;;;;;;2.83;0.90;;;12.10;74.60;;;;;;5019779;28;20504;-77
2023/03/23 06:39:54;;;;;;;1.08;0.80;;;12.10;74.90;;;;;;4980672;28;20037;-76
2023/03/23 06:42:21;;;;;;;3.65;1.00;;;12.20;75.10;;;;;;5010182;28;20837;-76
2023/03/23 06:44:47;;;;;;;2.50;0.95;;;12.20;75.20;;;;;;5006120;28;20124;-77
2023/03/23 06:47:12;;;;;;;1.30;1.00;;;12.20;75.50;;;;;;4993638;28;20438;-77
2023/03/23 06:49:38;;;;;;;2.63;1.15;;;12.20;75.60;;;;;;5012191;28;20090;-78
2023/03/23 06:52:03;;;;;;;1.63;1.00;;;12.20;75.90;;;;;;5028826;28;20783;-77
2023/03/23 06:54:29;;;;;;;1.98;1.13;;;12.20;76.00;;;;;;5020164;28;20094;-78
2023/03/23 06:56:55;;;;;;;1.50;1.02;;;12.20;76.10;;;;;;5024313;28;20099;-77
2023/03/23 06:59:20;;;;;;;1.83;1.00;;;12.20;76.40;;;;;;5025960;28;20032;-78
2023/03/23 07:01:46;;;;;;;1.25;0.80;;;12.30;76.70;;;;;;4996327;28;20043;-77
2023/03/23 07:04:12;;;;;;;1.05;0.90;;;12.30;76.70;;;;;;5021150;28;20037;-77
2023/03/23 07:06:37;;;;;;;1.02;0.70;;;12.30;77.10;;;;;;5010467;28;20135;-78
2023/03/23 07:09:03;;;;;;;1.23;1.13;;;12.30;77.20;;;;;;5011180;28;20084;-77
2023/03/23 07:11:29;;;;;;;1.52;1.17;;;12.30;77.20;;;;;;5002614;28;20129;-75
2023/03/23 07:13:54;;;;;;;2.78;1.08;;;12.30;77.30;;;;;;5007327;28;20044;-77
2023/03/23 07:16:20;;;;;;;2.03;1.67;;;12.30;77.20;;;;;;5012507;28;20668;-78
2023/03/23 07:18:45;;;;;;;1.60;1.40;;;12.30;77.10;;;;;;5041905;28;20037;-77
2023/03/23 07:21:11;;;;;;;5.00;1.92;;;12.30;77.20;;;;;;5046791;28;20443;-77
2023/03/23 07:23:36;;;;;;;2.28;1.48;;;12.30;77.40;;;;;;5031186;28;20039;-77
2023/03/23 07:26:03;;;;;;;2.78;1.42;;;12.30;77.60;;;;;;5016886;28;20718;-76
2023/03/23 07:28:28;;;;;;;2.13;1.27;;;12.30;77.90;;;;;;5015411;28;20041;-76
2023/03/23 07:30:54;;;;;;;1.70;1.10;;;12.40;78.10;;;;;;5029877;28;20046;-78
2023/03/23 07:33:19;;;;;;;1.70;1.23;;;12.40;78.20;;;;;;4996737;28;20151;-76
2023/03/23 07:35:45;;;;;;;4.40;2.38;;;12.40;78.20;;;;;;4995586;28;20077;-77
2023/03/23 07:38:11;;;;;;;4.40;3.03;;;12.40;78.20;;;;;;5026269;28;20073;-76
2023/03/23 07:40:37;;;;;;;2.58;2.33;;;12.40;78.40;;;;;;5027569;28;20029;-77
2023/03/23 07:43:03;;;;;;;2.72;1.88;;;12.40;78.70;;;;;;4983214;28;20077;-75
2023/03/23 07:45:28;;;;;;;2.50;1.73;;;12.40;78.70;;;;;;4985575;28;20643;-76
2023/03/23 07:47:54;;;;;;;1.67;1.30;;;12.50;78.90;;;;;;4999848;28;20053;-77
2023/03/23 07:50:24;;;;;;;3.00;2.60;;;12.50;79.80;;;;;;4995119;28;20041;-77
2023/03/23 07:52:53;;;;;;;4.07;3.35;;;12.50;79.10;;;;;;5002181;28;20067;-76
2023/03/23 07:55:19;;;;;;;4.10;3.20;;;12.50;79.30;;;;;;4998433;28;20129;-77
2023/03/23 07:57:46;;;;;;;4.50;3.55;;;12.50;79.20;;;;;;4993577;28;20149;-76
2023/03/23 08:00:15;;;;;;;6.57;4.20;;;12.50;79.30;;;;;;4993031;28;20629;-76
2023/03/23 08:02:41;;;;;;;4.50;3.92;;;12.60;79.50;;;;;;5001163;28;20044;-77
2023/03/23 08:05:08;;;;;;;4.55;3.17;;;12.60;79.60;;;;;;5004529;28;20033;-74
2023/03/23 08:07:34;;;;;;;2.38;1.95;;;12.60;79.70;;;;;;4995313;28;20084;-76
2023/03/23 08:10:00;;;;;;;4.40;3.00;;;12.70;79.60;;;;;;5026516;28;20527;-77
2023/03/23 08:12:26;;;;;;;5.47;2.97;;;12.70;79.30;;;;;;5011353;28;20029;-77
2023/03/23 08:14:53;;;;;;;4.15;3.08;;;12.80;79.50;;;;;;5043847;28;20036;-76
2023/03/23 08:17:19;;;;;;;4.13;2.22;;;12.80;79.50;;;;;;5033867;28;20803;-76
2023/03/23 08:19:45;;;;;;;3.70;2.38;;;12.90;79.40;;;;;;5029530;28;20051;-76
2023/03/23 08:22:11;;;;;;;3.30;1.63;;;13.00;79.20;;;;;;5014807;28;20040;-77
2023/03/23 08:24:36;;;;;;;2.25;2.00;;;13.00;79.10;;;;;;5012657;28;20041;-77
2023/03/23 08:27:02;;;;;;;3.53;2.15;;;13.10;79.00;;;;;;5018002;28;20039;-77
2023/03/23 08:29:28;;;;;;;3.58;2.17;;;13.10;78.70;;;;;;5018889;28;20071;-78
2023/03/23 08:31:53;;;;;;;2.55;1.85;;;13.20;78.70;;;;;;5029858;28;20041;-76
2023/03/23 08:34:19;;;;;;;4.22;2.22;;;13.30;78.70;;;;;;4991098;28;20085;-76
2023/03/23 08:36:46;;;;;;;3.70;1.77;;;13.30;78.60;;;;;;4994172;28;20042;-77
2023/03/23 08:39:12;;;;;;;3.15;2.10;;;13.40;78.60;;;;;;5009134;28;20668;-77
2023/03/23 08:41:38;;;;;;;3.33;1.48;;;13.40;78.80;;;;;;4988723;28;20116;-76
2023/03/23 08:44:05;;;;;;;2.47;1.60;;;13.50;78.90;;;;;;4974491;28;20033;-76
2023/03/23 08:46:30;;;;;;;2.28;1.33;;;13.60;78.90;;;;;;5011956;28;20598;-78
2023/03/23 08:48:56;;;;;;;2.72;1.67;;;13.70;78.80;;;;;;5004488;28;20038;-77
2023/03/23 08:51:21;;;;;;;2.92;1.25;;;13.80;78.70;;;;;;5006389;28;20037;-75
2023/03/23 08:53:47;;;;;;;1.33;1.10;;;13.90;78.60;;;;;;5002047;28;20068;-78
2023/03/23 08:56:13;;;;;;;1.90;1.13;;;13.90;79.00;;;;;;5011762;28;20029;-77
2023/03/23 08:58:39;;;;;;;1.83;1.10;;;14.00;78.00;;;;;;5012434;28;20545;-78
2023/03/23 09:01:06;;;;;;;1.10;1.00;;;14.00;77.90;;;;;;4995542;28;20040;-78
2023/03/23 09:03:32;;;;;;;2.83;1.20;;;14.10;77.80;;;;;;4989326;28;20034;-77
2023/03/23 09:06:01;;;;;;;1.55;1.23;;;14.20;77.70;;;;;;5013568;28;20053;-77
2023/03/23 09:08:28;;;;;;;1.45;1.00;;;14.20;77.50;;;;;;5007329;28;20040;-78
2023/03/23 09:10:55;;;;;;;3.40;1.30;;;14.30;77.30;;;;;;4992491;28;20570;-78
2023/03/23 09:13:21;;;;;;;1.98;1.02;;;14.40;77.20;;;;;;5011798;28;20486;-77
2023/03/23 09:15:47;;;;;;;5.68;1.20;;;14.40;77.00;;;;;;5004099;28;20576;-78
2023/03/23 09:18:13;;;;;;;1.00;0.90;;;14.50;76.90;;;;;;5012733;28;20107;-79
2023/03/23 09:20:38;;;;;;;4.00;1.30;;;14.60;76.80;;;;;;5009146;28;20042;-78
2023/03/23 09:23:05;;;;;;;2.78;1.30;;;14.60;76.50;;;;;;5014746;28;20121;-78
2023/03/23 09:25:31;;;;;;;2.10;1.40;;;14.70;76.30;;;;;;5025316;28;20037;-78
2023/03/23 09:27:57;;;;;;;3.22;1.70;;;14.70;76.10;;;;;;5004173;28;20022;-77
2023/03/23 09:30:27;;;;;;;3.47;1.05;;;14.70;76.00;;;;;;4994377;28;20737;-78
2023/03/23 09:32:53;;;;;;;3.22;0.98;;;14.80;75.90;;;;;;4990277;28;20037;-77
2023/03/23 09:35:22;;;;;;;1.10;0.90;;;14.80;75.70;;;;;;5027618;28;20108;-77
2023/03/23 09:37:49;;;;;;;1.00;0.70;;;14.90;75.70;;;;;;5013026;28;20048;-78
2023/03/23 09:40:23;;;;;;;1.70;0.82;;;14.90;75.60;;;;;;4994795;28;20036;-77
2023/03/23 09:42:58;;;;;;;0.93;0.80;;;14.90;75.40;;;;;;4992980;28;20048;-76
2023/03/23 09:45:45;;;;;;;1.17;0.80;;;15.00;75.10;;;;;;5007429;28;20029;-78
2023/03/23 09:48:47;;;;;;;1.02;0.75;;;14.90;75.10;;;;;;5005850;28;20092;-76
2023/03/23 09:51:38;;;;;;;1.77;1.15;;;14.90;74.90;;;;;;5010789;28;20061;-77
2023/03/23 09:54:25;;;;;;;1.08;0.70;;;14.90;74.70;;;;;;5019371;28;20045;-77
2023/03/23 09:56:51;;;;;;;1.13;0.80;;;14.90;74.70;;;;;;4995386;28;20672;-78
2023/03/23 09:59:39;;;;;;;1.05;0.70;;;14.90;74.60;;;;;;4998671;28;20840;-77
2023/03/23 10:02:19;;;;;;;1.42;0.63;;;14.90;74.50;;;;;;5038385;28;20072;-77
2023/03/23 10:04:46;;;;;;;1.87;0.70;;;14.90;74.50;;;;;;5011856;28;20045;-78
2023/03/23 10:07:17;;;;;;;0.98;0.80;;;14.90;74.40;;;;;;5002922;28;20850;-77
2023/03/23 10:09:45;;;;;;;2.75;1.13;;;14.90;74.30;;;;;;4983503;28;20099;-77
2023/03/23 10:12:35;;;;;;;1.40;1.30;;;15.00;74.30;;;;;;5008986;28;20061;-77
2023/03/23 10:15:17;;;;;;;0.80;0.70;;;14.90;74.10;;;;;;5007586;28;20049;-78
2023/03/23 10:18:14;;;;;;;1.27;0.43;;;14.90;74.00;;;;;;4990660;28;20051;-79
2023/03/23 10:20:46;;;;;;;0.88;0.70;;;15.00;73.90;;;;;;5014878;28;20038;-78
2023/03/23 10:23:40;;;;;;;1.50;1.10;;;15.00;73.90;;;;;;5007476;28;20129;-79
2023/03/23 10:26:14;;;;;;;1.67;0.68;;;14.90;74.00;;;;;;5019440;28;20039;-78
2023/03/23 10:28:45;;;;;;;0.98;0.73;;;14.90;73.80;;;;;;5030383;28;20107;-78
2023/03/23 10:31:31;;;;;;;1.08;0.80;;;15.00;74.00;;;;;;5000054;28;20107;-78
2023/03/23 10:33:59;;;;;;;0.52;0.52;;;15.00;74.20;;;;;;5001178;28;20071;-77
2023/03/23 10:36:31;;;;;;;1.60;0.70;;;15.10;74.10;;;;;;5016786;28;20048;-78
2023/03/23 10:39:18;;;;;;;0.88;0.80;;;15.20;73.90;;;;;;5034274;28;20037;-77
2023/03/23 10:41:44;;;;;;;2.25;0.80;;;15.20;73.90;;;;;;5011997;28;20588;-79
2023/03/23 10:44:15;;;;;;;2.97;0.60;;;15.20;73.70;;;;;;5029311;28;20037;-78
2023/03/23 10:46:48;;;;;;;;;;;15.30;73.80;;;;;;5012765;28;20037;-79
2023/03/23 10:49:18;;;;;;;1.63;0.90;;;15.50;73.80;;;;;;5017462;28;19921;-78
2023/03/23 10:51:49;;;;;;;1.73;1.23;;;15.60;73.50;;;;;;5017127;28;20045;-78
2023/03/23 10:54:25;;;;;;;1.98;0.77;;;15.80;73.20;;;;;;5016653;28;20789;-79
2023/03/23 10:56:51;;;;;;;0.60;0.52;;;15.90;72.90;;;;;;5034480;28;20044;-79
2023/03/23 10:59:26;;;;;;;0.73;0.50;;;15.90;72.70;;;;;;5034263;28;20041;-78
2023/03/23 11:01:53;;;;;;;0.63;0.63;;;16.00;72.50;;;;;;5035290;28;20041;-77
2023/03/23 11:04:19;;;;;;;0.63;0.57;;;16.10;72.50;;;;;;5000051;28;20118;-78
2023/03/23 11:06:52;;;;;;;1.05;0.65;;;16.30;72.40;;;;;;5031240;28;20061;-79
2023/03/23 11:09:18;;;;;;;1.13;0.70;;;16.40;72.10;;;;;;5006829;28;20052;-80
2023/03/23 11:11:52;;;;;;;1.50;0.60;;;16.50;71.80;;;;;;5022552;28;20075;-79
2023/03/23 11:14:27;;;;;;;0.93;0.55;;;16.70;71.20;;;;;;5018907;28;20056;-78
2023/03/23 11:16:57;;;;;;;2.78;0.60;;;16.60;70.80;;;;;;5034312;28;20037;-79
2023/03/23 11:19:28;;;;;;;1.35;0.45;;;16.60;70.60;;;;;;5023068;28;20115;-78
2023/03/23 11:21:57;;;;;;;1.80;0.40;;;16.60;70.40;;;;;;5039539;28;20559;-79
2023/03/23 11:24:24;;;;;;;0.43;0.43;;;16.50;70.30;;;;;;5032745;28;20041;-78
2023/03/23 11:26:50;;;;;;;1.45;0.57;;;16.50;70.20;;;;;;5024887;28;20120;-78
2023/03/23 11:29:17;;;;;;;0.82;0.47;;;16.50;70.30;;;;;;5039622;28;20163;-77
2023/03/23 11:31:45;;;;;;;0.70;0.70;;;16.40;70.10;;;;;;5017736;28;20093;-79
2023/03/23 11:34:24;;;;;;;0.93;0.50;;;16.40;70.10;;;;;;5020846;28;20041;-78
2023/03/23 11:36:53;;;;;;;0.57;0.40;;;16.40;70.80;;;;;;5022660;28;20188;-78
2023/03/23 11:39:32;;;;;;;0.40;0.40;;;16.40;70.00;;;;;;5032763;28;20121;-79
2023/03/23 11:41:59;;;;;;;0.63;0.40;;;16.40;69.90;;;;;;5020149;28;20076;-79
2023/03/23 11:44:32;;;;;;;0.43;0.25;;;16.30;69.90;;;;;;5025723;28;20037;-79
2023/03/23 11:47:15;;;;;;;0.80;0.50;;;16.30;69.90;;;;;;5020305;28;20732;-77
2023/03/23 11:49:51;;;;;;;0.77;0.50;;;16.30;70.10;;;;;;5032639;28;20048;-80
2023/03/23 11:52:37;;;;;;;2.03;0.90;;;16.30;70.00;;;;;;5015424;28;20682;-78
2023/03/23 11:55:16;;;;;;;0.55;0.45;;;16.20;70.00;;;;;;5035538;28;20068;-78
2023/03/23 11:57:42;;;;;;;0.60;0.60;;;16.20;70.10;;;;;;5017725;28;20040;-79
2023/03/23 12:00:16;;;;;;;0.60;0.50;;;16.10;70.10;;;;;;5017444;28;20041;-79
2023/03/23 12:02:56;;;;;;;0.63;0.32;;;16.10;70.30;;;;;;4999977;28;20049;-79
2023/03/23 12:05:41;;;;;;;0.52;0.52;;;16.10;70.40;;;;;;5023937;28;20549;-79
2023/03/23 12:08:31;;;;;;;0.82;0.70;;;16.00;70.40;;;;;;5033008;28;20041;-79
2023/03/23 12:11:23;;;;;;;0.43;0.43;;;16.00;70.60;;;;;;5036954;28;20181;-78
2023/03/23 12:14:01;;;;;;;0.60;0.30;;;15.90;70.70;;;;;;5030686;28;20044;-78
2023/03/23 12:16:52;;;;;;;0.93;0.40;;;15.80;70.70;;;;;;5031994;28;20442;-78
2023/03/23 12:19:30;;;;;;;0.80;0.30;;;15.80;70.80;;;;;;5012526;28;20553;-78
2023/03/23 12:22:29;;;;;;;0.70;0.50;;;15.80;70.90;;;;;;5010134;28;20674;-79
2023/03/23 12:25:31;;;;;;;1.08;0.60;;;15.80;71.70;;;;;;5017185;28;20047;-79
2023/03/23 12:28:06;;;;;;;0.57;0.40;;;15.80;70.90;;;;;;5014260;28;20244;-78
2023/03/23 12:30:55;;;;;;;2.65;0.60;;;15.70;70.80;;;;;;5025948;28;21518;-79
2023/03/23 12:33:36;;;;;;;1.75;0.57;;;15.70;70.80;;;;;;5001886;28;20046;-78
2023/03/23 12:36:19;;;;;;;0.80;0.68;;;15.70;70.90;;;;;;5013430;28;20046;-80
2023/03/23 12:39:13;;;;;;;0.88;0.57;;;15.70;71.00;;;;;;5020646;28;20041;-80
2023/03/23 12:41:55;;;;;;;0.98;0.50;;;15.70;71.00;;;;;;5032465;28;20452;-78
2023/03/23 12:44:26;;;;;;;1.65;0.60;;;15.70;71.00;;;;;;5039105;28;20032;-80
2023/03/23 12:47:49;;;;;;;0.57;0.52;;;15.60;70.90;;;;;;5030829;28;20171;-81
2023/03/23 12:50:34;;;;;;;1.20;0.70;;;15.60;71.00;;;;;;4942882;28;20429;-80
2023/03/23 12:53:17;;;;;;;2.15;0.70;;;15.60;71.00;;;;;;4933810;28;20448;-79
2023/03/23 12:55:45;;;;;;;0.73;0.50;;;15.60;71.00;;;;;;4957761;28;20058;-78
2023/03/23 12:58:15;;;;;;;0.50;0.50;;;15.70;71.10;;;;;;4940688;28;20075;-79
2023/03/23 13:01:21;;;;;;;2.22;1.10;;;15.70;71.10;;;;;;4937896;28;20046;-79
2023/03/23 13:04:01;;;;;;;3.00;1.10;;;15.70;71.10;;;;;;4958996;28;20040;-79